Time;durP1;ratioP1;P1;durP2;ratioP2;P2;SDS_P1;SDS_P2;PMS_P1;PMS_P2;Temp;Humidity;BMP_temperature;BMP_pressure;BME280_temperature;BME280_humidity;BME280_pressure;Samples;Min_cycle;Max_cycle;Signal;HPM_P1;HPM_P2
2022/09/25 00:02:10;;;;;;;3.62;2.65;;;;;;;7.68;87.00;99620.16;1813074;76;21191;-78
2022/09/25 00:04:37;;;;;;;3.40;2.90;;;;;;;7.72;86.92;99612.25;1775708;78;22165;-79
2022/09/25 00:07:05;;;;;;;4.92;2.70;;;;;;;7.80;86.59;99613.66;1800478;77;21003;-77
2022/09/25 00:09:38;;;;;;;4.67;3.10;;;;;;;7.77;86.53;99617.92;1813502;76;21026;-76
2022/09/25 00:12:05;;;;;;;3.70;2.65;;;;;;;7.73;86.56;99615.25;1806260;78;24012;-78
2022/09/25 00:14:32;;;;;;;3.25;2.65;;;;;;;7.70;86.56;99621.33;1821198;76;21027;-77
2022/09/25 00:16:59;;;;;;;3.25;2.30;;;;;;;7.77;86.41;99607.84;1812812;77;21282;-77
2022/09/25 00:22:11;;;;;;;3.65;2.95;;;;;;;7.71;86.28;99621.65;1817722;76;21474;-76
2022/09/25 00:24:38;;;;;;;3.50;2.60;;;;;;;7.64;86.48;99613.02;1811765;77;21032;-77
2022/09/25 00:27:07;;;;;;;3.42;2.72;;;;;;;7.66;86.43;99621.63;1809634;76;21055;-79
2022/09/25 00:29:33;;;;;;;3.15;2.52;;;;;;;7.75;86.17;99618.57;1817517;76;21133;-79
2022/09/25 00:32:00;;;;;;;4.42;3.17;;;;;;;7.72;86.12;99624.65;1806341;76;21099;-77
2022/09/25 00:34:26;;;;;;;4.28;2.83;;;;;;;7.65;86.22;99632.38;1819210;76;21085;-79
2022/09/25 00:36:53;;;;;;;4.45;2.90;;;;;;;7.57;86.39;99629.63;1802613;78;21061;-78
2022/09/25 00:39:19;;;;;;;4.15;2.72;;;;;;;7.63;86.33;99632.52;1820831;77;21021;-78
2022/09/25 00:41:46;;;;;;;3.87;2.62;;;;;;;7.67;86.18;99632.55;1820679;78;21077;-78
2022/09/25 00:44:52;;;;;;;3.22;2.77;;;;;;;7.60;86.28;99625.38;1820239;76;21049;-78
2022/09/25 00:47:22;;;;;;;4.83;2.35;;;;;;;7.52;86.42;99628.78;1818418;76;21552;-76
2022/09/25 00:49:49;;;;;;;4.10;3.10;;;;;;;7.53;86.42;99623.81;1806661;78;21010;-77
2022/09/25 00:52:16;;;;;;;2.87;2.58;;;;;;;7.55;86.32;99626.31;1805808;76;21092;-78
2022/09/25 00:54:51;;;;;;;3.15;2.85;;;;;;;7.46;86.49;99619.64;1813988;76;21287;-78
2022/09/25 00:57:21;;;;;;;4.03;2.80;;;;;;;7.40;86.62;99620.74;1804351;76;21034;-78
2022/09/25 00:59:52;;;;;;;3.95;2.52;;;;;;;7.44;86.56;99626.06;1799583;78;21033;-79
2022/09/25 01:02:26;;;;;;;4.33;3.35;;;;;;;7.47;86.40;99623.10;1789930;78;21001;-76
2022/09/25 01:04:52;;;;;;;3.52;2.60;;;;;;;7.40;86.49;99623.39;1814112;77;21327;-78
2022/09/25 01:07:19;;;;;;;3.33;3.02;;;;;;;7.35;86.72;99624.31;1813519;77;21103;-78
2022/09/25 01:09:47;;;;;;;3.15;2.60;;;;;;;7.36;86.68;99620.68;1809776;77;20995;-79
2022/09/25 01:12:13;;;;;;;3.35;2.80;;;;;;;7.42;86.53;99616.13;1800171;77;21113;-80
2022/09/25 01:14:41;;;;;;;4.10;3.37;;;;;;;7.36;86.52;99621.53;1785845;79;21031;-76
2022/09/25 01:17:28;;;;;;;3.20;2.65;;;;;;;7.31;86.62;99617.67;1814364;77;21061;-77
2022/09/25 01:20:10;;;;;;;4.20;2.95;;;;;;;7.35;86.50;99616.39;1793954;77;21230;-78
2022/09/25 01:23:01;;;;;;;3.40;2.77;;;;;;;7.41;86.33;99617.10;1792973;77;21097;-78
2022/09/25 01:26:00;;;;;;;4.05;2.85;;;;;;;7.35;86.47;99621.67;1827706;77;20993;-79
2022/09/25 01:28:53;;;;;;;3.30;2.58;;;;;;;7.27;86.54;99620.60;1801865;77;21324;-80
2022/09/25 01:31:44;;;;;;;2.95;2.33;;;;;;;7.36;86.36;99625.97;1793756;77;21042;-79
2022/09/25 01:34:19;;;;;;;4.55;2.90;;;;;;;7.34;86.36;99622.17;1797330;78;21056;-76
2022/09/25 01:36:58;;;;;;;3.62;3.10;;;;;;;7.26;86.46;99624.71;1805167;77;21042;-76
2022/09/25 01:39:37;;;;;;;3.10;2.80;;;;;;;7.23;86.63;99623.20;1794757;79;21014;-77
2022/09/25 01:42:09;;;;;;;3.17;2.62;;;;;;;7.31;86.42;99621.64;1790496;78;21041;-77
2022/09/25 01:44:42;;;;;;;3.30;2.80;;;;;;;7.23;86.52;99617.10;1793848;77;21019;-76
2022/09/25 01:47:14;;;;;;;3.80;2.90;;;;;;;7.14;86.76;99620.63;1778029;79;21790;-79
2022/09/25 01:50:00;;;;;;;4.12;2.55;;;;;;;7.13;86.94;99622.91;1782022;79;21235;-78
2022/09/25 01:52:41;;;;;;;4.53;3.20;;;;;;;7.17;86.83;99619.84;1794070;77;21041;-77
2022/09/25 01:55:18;;;;;;;4.03;2.83;;;;;;;7.12;87.04;99621.27;1799571;78;21102;-78
2022/09/25 01:57:53;;;;;;;5.25;2.95;;;;;;;7.06;87.13;99616.09;1809348;79;21030;-78
2022/09/25 02:00:21;;;;;;;3.12;2.83;;;;;;;7.09;87.33;99621.09;1788455;79;21221;-76
2022/09/25 02:02:55;;;;;;;4.80;3.10;;;;;;;7.15;87.07;99617.84;1796607;77;21012;-76
2022/09/25 02:05:31;;;;;;;4.55;3.12;;;;;;;7.09;87.24;99617.12;1795963;79;21058;-74
2022/09/25 02:08:15;;;;;;;3.20;2.65;;;;;;;7.00;87.47;99624.61;1803321;79;21129;-75
2022/09/25 02:10:56;;;;;;;3.47;3.10;;;;;;;6.98;87.60;99625.25;1803573;77;21082;-77
2022/09/25 02:13:25;;;;;;;3.75;3.05;;;;;;;7.02;87.61;99622.66;1777807;79;21554;-76
2022/09/25 02:15:58;;;;;;;5.50;3.30;;;;;;;6.94;87.78;99624.71;1773495;79;21085;-74
2022/09/25 02:21:24;;;;;;;4.00;3.02;;;;;;;6.86;88.20;99625.45;1800797;77;21624;-77
2022/09/25 02:24:05;;;;;;;3.85;3.25;;;;;;;6.91;88.19;99630.27;1800706;79;21069;-77
2022/09/25 02:26:32;;;;;;;4.55;3.67;;;;;;;6.82;88.56;99630.69;1798787;79;21706;-78
2022/09/25 02:28:59;;;;;;;4.10;3.05;;;;;;;6.74;88.81;99627.09;1741236;80;21063;-75
2022/09/25 02:31:29;;;;;;;6.47;3.58;;;;;;;6.78;88.91;99620.54;1750349;80;21033;-78
2022/09/25 02:33:58;;;;;;;5.47;3.40;;;;;;;6.78;88.94;99630.64;1752716;80;21076;-76
2022/09/25 02:36:25;;;;;;;4.40;3.30;;;;;;;6.69;89.39;99628.37;1815119;78;21068;-78
2022/09/25 02:38:52;;;;;;;5.72;3.87;;;;;;;6.63;89.60;99629.45;1818925;76;21097;-77
2022/09/25 02:41:30;;;;;;;3.70;3.33;;;;;;;6.69;89.45;99631.51;1819948;76;21112;-77
2022/09/25 02:44:31;;;;;;;4.80;3.95;;;;;;;6.67;89.50;99629.00;1815213;76;21061;-81
2022/09/25 02:47:39;;;;;;;5.90;3.90;;;;;;;6.58;90.00;99627.73;1832093;77;21072;-77
2022/09/25 02:50:25;;;;;;;4.50;3.85;;;;;;;6.60;89.87;99634.52;1797053;78;21088;-74
2022/09/25 02:53:18;;;;;;;4.50;3.80;;;;;;;6.59;90.10;99633.36;1812129;76;21219;-77
2022/09/25 02:55:58;;;;;;;5.25;3.58;;;;;;;6.48;90.39;99631.23;1757303;79;21029;-77
2022/09/25 02:58:40;;;;;;;4.55;3.70;;;;;;;6.50;90.50;99621.36;1787176;78;21061;-76
2022/09/25 03:01:09;;;;;;;6.47;3.60;;;;;;;6.56;90.32;99623.09;1773067;79;21053;-77
2022/09/25 03:03:36;;;;;;;4.85;3.77;;;;;;;6.49;90.70;99627.63;1783513;78;21559;-76
2022/09/25 03:06:03;;;;;;;4.25;3.12;;;;;;;6.44;90.71;99620.63;1800139;77;22185;-76
2022/09/25 03:08:37;;;;;;;6.20;3.58;;;;;;;6.54;90.58;99628.50;1804445;77;21050;-74
2022/09/25 03:11:05;;;;;;;4.20;3.77;;;;;;;6.54;90.54;99623.72;1748986;77;21066;-76
2022/09/25 03:13:33;;;;;;;5.50;3.92;;;;;;;6.47;90.75;99626.94;1809574;77;21039;-77
2022/09/25 03:16:07;;;;;;;5.37;3.80;;;;;;;6.45;90.84;99620.98;1812785;79;21537;-74
2022/09/25 03:18:34;;;;;;;5.50;3.60;;;;;;;6.57;90.52;99622.13;1802332;77;21928;-77
2022/09/25 03:21:03;;;;;;;6.37;3.92;;;;;;;6.54;90.50;99624.54;1792047;78;21077;-79
2022/09/25 03:23:30;;;;;;;5.22;3.67;;;;;;;6.48;90.61;99623.31;1785382;79;21161;-78
2022/09/25 03:25:57;;;;;;;6.25;3.52;;;;;;;6.53;90.45;99628.64;1812429;79;21066;-76
2022/09/25 03:28:23;;;;;;;7.25;3.67;;;;;;;6.60;90.26;99627.91;1805312;77;21057;-75
2022/09/25 03:30:59;;;;;;;6.50;4.17;;;;;;;6.56;90.33;99637.10;1809006;77;21728;-77
2022/09/25 03:33:29;;;;;;;8.15;3.87;;;;;;;6.49;90.37;99628.95;1783383;78;21533;-76
2022/09/25 03:36:05;;;;;;;5.60;4.25;;;;;;;6.53;90.39;99632.59;1805675;77;21058;-76
2022/09/25 03:38:32;;;;;;;4.85;3.75;;;;;;;6.59;90.13;99633.36;1795113;77;21078;-76
2022/09/25 03:40:59;;;;;;;4.60;3.60;;;;;;;6.53;90.25;99643.16;1799893;77;22045;-76
2022/09/25 03:43:25;;;;;;;5.33;3.92;;;;;;;6.46;90.43;99642.42;1807989;79;21675;-75
2022/09/25 03:45:52;;;;;;;5.75;4.03;;;;;;;6.49;90.42;99649.23;1791953;78;21605;-77
2022/09/25 03:48:19;;;;;;;6.08;4.60;;;;;;;6.58;90.16;99640.92;1779683;77;21064;-76
2022/09/25 03:50:48;;;;;;;4.30;3.70;;;;;;;6.54;90.13;99640.38;1788022;79;21019;-74
2022/09/25 03:53:16;;;;;;;5.33;4.22;;;;;;;6.47;90.22;99636.18;1803734;78;20987;-77
2022/09/25 03:55:47;;;;;;;5.90;4.08;;;;;;;6.51;90.26;99647.28;1775934;78;21139;-76
2022/09/25 03:58:15;;;;;;;5.05;4.03;;;;;;;6.60;90.00;99649.03;1759376;80;21462;-75
2022/09/25 04:00:43;;;;;;;5.42;4.45;;;;;;;6.57;89.99;99647.20;1768186;78;21067;-76
2022/09/25 04:03:09;;;;;;;5.03;3.90;;;;;;;6.50;90.09;99643.79;1744288;80;21092;-77
2022/09/25 04:05:36;;;;;;;4.70;3.27;;;;;;;6.52;90.16;99643.66;1769219;79;21025;-77
2022/09/25 04:08:02;;;;;;;4.55;3.47;;;;;;;6.60;89.87;99652.99;1787265;80;21147;-77
2022/09/25 04:10:31;;;;;;;4.37;3.87;;;;;;;6.58;89.80;99653.62;1780080;79;21485;-77
2022/09/25 04:12:58;;;;;;;4.95;4.00;;;;;;;6.52;90.06;99648.11;1789554;78;21032;-75
2022/09/25 04:15:24;;;;;;;5.78;3.98;;;;;;;6.56;89.91;99649.48;1773235;80;21044;-76
2022/09/25 04:17:51;;;;;;;5.62;3.67;;;;;;;6.67;89.62;99654.08;1789274;78;21035;-75
2022/09/25 04:20:18;;;;;;;5.83;4.28;;;;;;;6.67;89.58;99647.48;1802563;78;21077;-78
2022/09/25 04:22:45;;;;;;;7.80;4.42;;;;;;;6.65;89.41;99652.58;1797948;78;21015;-78
2022/09/25 04:25:11;;;;;;;4.00;3.60;;;;;;;6.63;89.42;99647.93;1787589;79;21138;-77
2022/09/25 04:27:38;;;;;;;4.95;3.65;;;;;;;6.78;88.99;99651.77;1796140;78;21073;-79
2022/09/25 04:30:05;;;;;;;5.60;4.35;;;;;;;6.83;88.70;99653.45;1795465;78;21015;-79
2022/09/25 04:35:19;;;;;;;5.75;3.85;;;;;;;6.79;88.62;99654.73;1781083;77;21550;-79
2022/09/25 04:37:45;;;;;;;5.15;3.92;;;;;;;6.91;88.32;99660.64;1793240;78;21093;-78
2022/09/25 04:40:12;;;;;;;6.97;3.80;;;;;;;6.99;87.99;99663.41;1803681;78;21019;-78
2022/09/25 04:42:38;;;;;;;5.20;4.05;;;;;;;7.00;87.87;99666.37;1806139;78;21019;-78
2022/09/25 04:45:06;;;;;;;4.80;3.58;;;;;;;6.99;87.81;99658.59;1804418;77;21085;-79
2022/09/25 04:47:33;;;;;;;4.30;3.62;;;;;;;7.08;87.64;99666.96;1781381;77;21062;-75
2022/09/25 04:49:59;;;;;;;5.62;4.00;;;;;;;7.22;87.00;99667.80;1795577;77;21015;-76
2022/09/25 04:52:27;;;;;;;5.03;3.98;;;;;;;7.23;86.90;99665.48;1783930;79;21161;-76
2022/09/25 04:54:53;;;;;;;5.75;3.80;;;;;;;7.24;86.64;99666.31;1793186;77;21085;-78
2022/09/25 04:57:22;;;;;;;6.20;3.90;;;;;;;7.24;86.57;99667.63;1759936;80;21200;-82
2022/09/25 04:59:49;;;;;;;6.42;4.65;;;;;;;7.38;86.10;99668.92;1780187;79;20982;-82
2022/09/25 05:02:16;;;;;;;5.33;4.15;;;;;;;7.45;85.95;99673.47;1789440;78;21044;-82
2022/09/25 05:04:44;;;;;;;6.83;4.58;;;;;;;7.44;85.78;99678.92;1775972;78;21060;-79
2022/09/25 05:07:10;;;;;;;6.78;3.95;;;;;;;7.45;85.51;99676.61;1773116;78;21037;-81
2022/09/25 05:09:38;;;;;;;4.17;3.67;;;;;;;7.54;85.26;99680.18;1775790;78;21144;-81
2022/09/25 05:12:06;;;;;;;6.05;3.65;;;;;;;7.66;84.50;99681.61;1765964;78;21065;-78
2022/09/25 05:14:33;;;;;;;6.55;4.12;;;;;;;7.65;84.48;99682.11;1775966;78;21068;-76
2022/09/25 05:17:00;;;;;;;3.75;3.35;;;;;;;7.66;84.48;99679.79;1782700;80;21002;-77
2022/09/25 05:19:27;;;;;;;22.45;5.22;;;;;;;7.68;84.49;99685.75;1771382;78;21037;-76
2022/09/25 05:21:54;;;;;;;5.05;3.80;;;;;;;7.79;84.12;99679.92;1764389;80;21541;-76
2022/09/25 05:24:21;;;;;;;4.47;3.60;;;;;;;7.89;83.86;99685.95;1765008;78;21005;-77
2022/09/25 05:26:47;;;;;;;5.17;4.53;;;;;;;7.88;83.72;99687.77;1777251;78;21072;-74
2022/09/25 05:29:14;;;;;;;5.60;4.30;;;;;;;7.88;83.64;99693.56;1762988;79;21073;-74
2022/09/25 05:31:45;;;;;;;4.10;3.70;;;;;;;7.91;83.77;99694.56;1769125;78;21012;-76
2022/09/25 05:34:09;;;;;;;4.40;3.55;;;;;;;8.07;83.39;99688.11;1755199;81;21136;-76
2022/09/25 05:36:37;;;;;;;6.53;4.25;;;;;;;8.16;82.91;99688.16;1797854;79;21031;-78
2022/09/25 05:39:04;;;;;;;5.08;4.55;;;;;;;8.19;82.97;99684.72;1805434;79;21673;-75
2022/09/25 05:41:33;;;;;;;6.28;4.10;;;;;;;8.20;82.87;99689.01;1802686;79;21010;-75
2022/09/25 05:44:05;;;;;;;4.85;4.17;;;;;;;8.24;82.76;99688.22;1783433;77;21477;-76
2022/09/25 05:46:29;;;;;;;4.40;4.00;;;;;;;8.42;82.55;99688.20;1783821;79;21107;-76
2022/09/25 05:48:56;;;;;;;5.78;4.17;;;;;;;8.56;82.07;99685.50;1805374;77;21113;-76
2022/09/25 05:51:23;;;;;;;5.10;4.08;;;;;;;8.60;81.83;99686.84;1773591;79;21081;-78
2022/09/25 05:53:51;;;;;;;6.42;4.60;;;;;;;8.63;81.45;99687.83;1804860;78;21494;-78
2022/09/25 05:56:18;;;;;;;4.22;3.62;;;;;;;8.66;81.31;99694.97;1803084;79;21537;-77
2022/09/25 05:58:44;;;;;;;5.28;3.58;;;;;;;8.79;81.14;99697.70;1808854;79;21042;-78
2022/09/25 06:01:15;;;;;;;5.62;4.47;;;;;;;8.97;80.59;99698.44;1789134;78;21080;-83
2022/09/25 06:03:42;;;;;;;5.83;4.30;;;;;;;9.03;80.40;99696.98;1776278;80;21140;-82
2022/09/25 06:06:09;;;;;;;5.80;3.90;;;;;;;9.06;80.24;99695.35;1742575;81;20993;-83
2022/09/25 06:08:37;;;;;;;4.87;3.70;;;;;;;9.08;79.89;99706.62;1786740;79;21065;-83
2022/09/25 06:11:05;;;;;;;4.83;4.10;;;;;;;9.12;79.82;99703.16;1805666;79;21625;-83
2022/09/25 06:13:33;;;;;;;6.17;3.55;;;;;;;9.29;79.76;99702.70;1752829;81;21071;-81
2022/09/25 06:16:02;;;;;;;7.83;4.33;;;;;;;9.40;79.66;99706.39;1784466;78;21037;-83
2022/09/25 06:18:29;;;;;;;4.40;4.00;;;;;;;9.45;79.35;99704.09;1748456;81;21520;-86
2022/09/25 06:21:02;;;;;;;7.12;4.42;;;;;;;9.51;78.87;99703.94;1752737;81;21120;-83
2022/09/25 06:23:30;;;;;;;5.45;4.33;;;;;;;9.55;78.84;99707.42;1755246;81;21180;-83
2022/09/25 06:28:57;;;;;;;6.85;4.30;;;;;;;9.74;78.04;99710.79;1754748;80;21089;-83
2022/09/25 06:31:24;;;;;;;5.20;4.70;;;;;;;9.88;77.65;99699.52;1755052;81;21045;-84
2022/09/25 06:33:51;;;;;;;7.72;4.87;;;;;;;9.93;77.50;99703.84;1787438;78;21017;-85
2022/09/25 06:36:18;;;;;;;4.72;4.22;;;;;;;9.96;77.17;99710.13;1810903;77;20999;-85
2022/09/25 06:38:45;;;;;;;6.42;4.90;;;;;;;10.00;76.80;99704.82;1815642;79;21009;-84
2022/09/25 06:41:12;;;;;;;5.83;4.60;;;;;;;10.04;76.94;99712.81;1786675;78;20918;-86
2022/09/25 06:43:38;;;;;;;6.30;4.70;;;;;;;10.11;76.75;99710.31;1794547;80;21097;-83
2022/09/25 06:46:08;;;;;;;6.58;4.60;;;;;;;10.33;75.85;99706.68;1795528;80;20994;-86
2022/09/25 06:48:35;;;;;;;7.20;4.83;;;;;;;10.42;75.79;99709.16;1757419;78;21222;-82
2022/09/25 06:51:01;;;;;;;7.12;5.10;;;;;;;10.49;75.37;99707.16;1816642;77;21074;-83
2022/09/25 06:53:28;;;;;;;6.60;5.28;;;;;;;10.53;75.50;99710.65;1817019;79;21070;-82
2022/09/25 06:55:57;;;;;;;5.85;4.50;;;;;;;10.60;74.57;99710.79;1798578;79;21022;-84
2022/09/25 06:58:25;;;;;;;5.90;4.97;;;;;;;10.65;74.24;99711.63;1807708;77;21049;-85
2022/09/25 07:00:54;;;;;;;5.70;5.10;;;;;;;10.66;74.26;99706.13;1815939;77;21118;-82
2022/09/25 07:06:14;;;;;;;4.95;4.08;;;;;;;10.82;73.77;99706.61;1825054;76;21069;-82
2022/09/25 07:08:55;;;;;;;5.50;4.70;;;;;;;11.01;73.64;99710.20;1814288;77;21107;-84
2022/09/25 07:11:35;;;;;;;7.55;4.62;;;;;;;11.10;73.43;99706.98;1810217;77;20993;-82
2022/09/25 07:14:07;;;;;;;7.67;5.30;;;;;;;11.17;72.89;99711.95;1796498;78;22057;-80
2022/09/25 07:16:35;;;;;;;8.80;4.47;;;;;;;11.26;73.51;99703.94;1794221;78;21064;-78
2022/09/25 07:19:03;;;;;;;5.90;4.25;;;;;;;11.36;72.82;99712.55;1788966;78;22075;-80
2022/09/25 07:21:31;;;;;;;4.78;4.22;;;;;;;11.45;72.54;99708.82;1784312;78;21030;-77
2022/09/25 07:23:58;;;;;;;7.22;4.75;;;;;;;11.52;71.84;99704.47;1781753;78;21071;-79
2022/09/25 07:26:27;;;;;;;6.37;4.55;;;;;;;11.60;71.54;99712.39;1760849;80;21235;-80
2022/09/25 07:29:02;;;;;;;7.35;5.05;;;;;;;11.64;71.51;99701.41;1795817;78;21101;-80
2022/09/25 07:31:31;;;;;;;5.37;4.22;;;;;;;11.70;70.99;99713.50;1798886;78;21010;-79
2022/09/25 07:34:01;;;;;;;5.75;4.72;;;;;;;11.78;70.92;99703.30;1795987;78;21249;-80
2022/09/25 07:36:28;;;;;;;4.87;3.70;;;;;;;11.84;71.12;99707.09;1793288;80;21025;-79
2022/09/25 07:39:01;;;;;;;5.50;4.33;;;;;;;11.91;70.78;99703.58;1791897;80;21079;-81
2022/09/25 07:41:36;;;;;;;4.62;3.92;;;;;;;11.99;70.53;99702.69;1788787;78;21109;-80
2022/09/25 07:44:12;;;;;;;5.60;3.70;;;;;;;12.08;70.60;99699.47;1759406;78;21046;-80
2022/09/25 07:46:42;;;;;;;7.45;3.95;;;;;;;12.18;70.28;99699.53;1784510;78;21050;-81
2022/09/25 07:49:06;;;;;;;5.30;3.80;;;;;;;12.29;69.94;99692.95;1790307;78;21041;-80
2022/09/25 07:51:32;;;;;;;5.10;3.50;;;;;;;12.39;69.10;99697.52;1789642;78;21106;-80
2022/09/25 07:54:01;;;;;;;5.47;4.17;;;;;;;12.48;68.08;99699.61;1763923;78;21132;-78
2022/09/25 07:56:30;;;;;;;4.05;3.30;;;;;;;12.55;67.70;99700.52;1790839;78;20997;-80
2022/09/25 07:58:56;;;;;;;4.12;3.62;;;;;;;12.62;67.71;99709.14;1791252;78;21588;-79
2022/09/25 08:01:22;;;;;;;5.15;3.95;;;;;;;12.70;67.23;99697.88;1788512;78;21496;-82
2022/09/25 08:03:50;;;;;;;4.37;3.55;;;;;;;12.76;67.18;99694.47;1786822;78;21575;-80
2022/09/25 08:06:28;;;;;;;5.10;3.40;;;;;;;12.87;67.38;99699.87;1790863;78;21081;-82
2022/09/25 08:09:03;;;;;;;3.40;2.95;;;;;;;13.02;66.28;99693.69;1765583;79;21137;-81
2022/09/25 08:11:35;;;;;;;3.20;2.90;;;;;;;13.13;65.53;99694.08;1796007;78;21014;-81
2022/09/25 08:14:02;;;;;;;4.00;3.20;;;;;;;13.23;65.62;99693.78;1794632;79;21565;-81
2022/09/25 08:16:37;;;;;;;4.08;3.17;;;;;;;13.35;65.59;99692.30;1790588;78;21530;-82
2022/09/25 08:19:11;;;;;;;4.03;3.50;;;;;;;13.48;65.17;99689.46;1790128;80;21054;-81
2022/09/25 08:21:38;;;;;;;4.53;3.12;;;;;;;13.64;65.05;99696.43;1789880;78;20995;-78
2022/09/25 08:24:04;;;;;;;3.20;2.90;;;;;;;13.79;63.20;99689.20;1788915;78;21096;-81
2022/09/25 08:26:32;;;;;;;2.90;2.55;;;;;;;13.89;62.29;99697.70;1785739;80;21011;-82
2022/09/25 08:29:00;;;;;;;3.52;2.62;;;;;;;13.98;62.55;99696.23;1787161;78;21102;-82
2022/09/25 08:31:26;;;;;;;3.35;2.72;;;;;;;14.07;62.60;99695.91;1787722;78;21038;-79
2022/09/25 08:34:23;;;;;;;4.83;2.80;;;;;;;14.15;61.25;99693.62;1791714;78;21116;-83
2022/09/25 08:36:53;;;;;;;;;;;;;;;;;;;;;
2022/09/25 08:39:16;;;;;;;3.90;2.33;;;;;;;14.32;59.90;99689.64;1796324;78;21000;-82
2022/09/25 08:41:49;;;;;;;2.83;2.30;;;;;;;14.40;59.90;99686.00;1786117;78;21144;-83
2022/09/25 08:44:41;;;;;;;3.05;2.50;;;;;;;14.56;59.47;99688.89;1785238;78;21070;-80
2022/09/25 08:50:19;;;;;;;4.15;2.35;;;;;;;14.84;58.25;99680.06;1773311;78;21054;-81
2022/09/25 08:52:49;;;;;;;3.12;2.40;;;;;;;14.90;58.85;99673.91;1791595;80;21052;-83
2022/09/25 08:56:13;;;;;;;3.67;2.70;;;;;;;15.08;58.10;99674.71;1790406;78;21781;-82
2022/09/25 08:57:58;;;;;;;3.67;2.15;;;;;;;15.31;57.34;99681.91;1775765;78;21018;-84
2022/09/25 09:00:33;;;;;;;3.17;2.47;;;;;;;15.66;55.65;99678.30;1790705;80;21079;-83
2022/09/25 09:03:17;;;;;;;2.37;2.17;;;;;;;16.14;55.30;99674.69;1788052;78;20998;-82
2022/09/25 09:06:01;;;;;;;2.70;2.40;;;;;;;16.65;53.93;99665.47;1785002;78;21065;-83
2022/09/25 09:08:28;;;;;;;3.85;2.45;;;;;;;17.17;52.04;99666.04;1788801;78;21670;-84
2022/09/25 09:11:18;;;;;;;4.20;2.47;;;;;;;17.52;51.37;99665.66;1787776;78;21077;-81
2022/09/25 09:13:56;;;;;;;2.67;2.47;;;;;;;17.78;50.98;99668.19;1790495;78;21097;-80
2022/09/25 09:16:29;;;;;;;2.37;2.17;;;;;;;17.79;50.17;99664.48;1762252;80;21093;-76
2022/09/25 09:18:57;;;;;;;3.08;2.40;;;;;;;17.54;50.46;99656.86;1788047;80;21086;-76
2022/09/25 09:21:34;;;;;;;2.52;2.20;;;;;;;17.54;50.29;99656.86;1788554;78;21535;-77
2022/09/25 09:24:11;;;;;;;3.90;3.50;;;;;;;17.78;50.39;99658.78;1786784;78;21520;-74
2022/09/25 09:27:17;;;;;;;2.70;2.50;;;;;;;18.27;50.51;99657.70;1783543;78;21469;-71
2022/09/25 09:30:15;;;;;;;2.60;2.40;;;;;;;19.03;50.05;99641.73;1790285;78;21206;-78
2022/09/25 09:33:11;;;;;;;3.47;2.50;;;;;;;20.00;47.96;99639.98;1788500;78;21147;-74
2022/09/25 09:36:12;;;;;;;2.75;2.55;;;;;;;20.71;46.62;99640.84;1760214;78;21145;-73
2022/09/25 09:39:08;;;;;;;3.60;2.75;;;;;;;21.30;46.63;99639.30;1795932;78;21022;-80
2022/09/25 09:41:46;;;;;;;2.47;2.27;;;;;;;22.13;44.70;99622.64;1796780;78;22345;-80
2022/09/25 09:44:30;;;;;;;2.40;2.20;;;;;;;22.80;42.01;99624.98;1794132;78;21210;-78
2022/09/25 09:47:25;;;;;;;3.87;2.37;;;;;;;23.02;41.79;99628.48;1793567;78;21052;-80
2022/09/25 09:50:00;;;;;;;2.62;2.42;;;;;;;23.20;40.51;99632.80;1762953;80;21863;-77
2022/09/25 09:52:35;;;;;;;3.40;2.33;;;;;;;23.31;40.71;99630.49;1785682;78;21584;-79
2022/09/25 09:55:16;;;;;;;2.75;2.55;;;;;;;23.57;40.66;99632.64;1783695;78;21047;-78
2022/09/25 09:57:49;;;;;;;2.72;2.52;;;;;;;23.77;39.90;99632.81;1774883;78;21117;-79
2022/09/25 10:00:18;;;;;;;2.47;2.27;;;;;;;23.82;40.48;99624.76;1785603;80;26514;-79
2022/09/25 10:03:04;;;;;;;2.50;2.30;;;;;;;24.10;38.63;99636.36;1728514;78;21054;-78
2022/09/25 10:05:37;;;;;;;5.80;2.47;;;;;;;24.03;38.59;99631.17;1774240;78;21070;-79
2022/09/25 10:08:08;;;;;;;2.35;2.10;;;;;;;23.93;38.29;99619.70;1784472;80;21729;-79
2022/09/25 10:10:41;;;;;;;2.77;2.37;;;;;;;23.78;38.20;99614.16;1783837;80;21038;-79
2022/09/25 10:13:31;;;;;;;2.45;2.25;;;;;;;23.65;38.39;99616.70;1784293;78;21007;-79
2022/09/25 10:16:16;;;;;;;2.65;2.45;;;;;;;23.56;38.01;99619.59;1783257;78;21154;-79
2022/09/25 10:19:05;;;;;;;2.40;2.20;;;;;;;23.87;39.88;99619.36;1783995;78;21094;-78
2022/09/25 10:21:42;;;;;;;2.77;2.45;;;;;;;24.56;37.60;99613.61;1785091;78;21101;-80
2022/09/25 10:24:09;;;;;;;2.47;2.27;;;;;;;24.52;36.76;99618.75;1754918;80;21065;-79
2022/09/25 10:26:39;;;;;;;3.30;2.42;;;;;;;24.40;36.90;99620.83;1785704;80;21097;-80
2022/09/25 10:29:26;;;;;;;2.12;2.02;;;;;;;23.98;37.65;99607.25;1786700;79;21215;-80
2022/09/25 10:32:02;;;;;;;1.98;1.87;;;;;;;23.51;37.54;99612.80;1787490;78;21030;-79
2022/09/25 10:34:32;;;;;;;3.12;2.22;;;;;;;22.65;38.39;99609.34;1785091;78;21502;-79
2022/09/25 10:37:01;;;;;;;2.60;2.40;;;;;;;22.08;39.59;99622.55;1779425;80;21038;-79
2022/09/25 10:39:38;;;;;;;2.35;2.10;;;;;;;21.79;40.21;99620.77;1749515;80;21084;-78
2022/09/25 10:42:32;;;;;;;2.95;2.02;;;;;;;21.57;40.45;99622.53;1775255;79;21136;-79
2022/09/25 10:45:20;;;;;;;2.47;2.27;;;;;;;21.11;40.91;99612.19;1761249;80;21043;-79
2022/09/25 10:51:19;;;;;;;3.55;1.98;;;;;;;20.20;42.87;99619.41;1858290;76;22524;-77
2022/09/25 10:53:49;;;;;;;2.80;2.60;;;;;;;19.95;43.23;99613.73;1846211;77;21473;-78
2022/09/25 10:56:34;;;;;;;2.58;2.33;;;;;;;20.13;44.26;99605.25;1848981;77;21167;-78
2022/09/25 10:59:00;;;;;;;2.72;2.40;;;;;;;20.84;42.37;99602.48;1820709;77;20976;-78
2022/09/25 11:01:36;;;;;;;2.50;2.30;;;;;;;21.04;41.85;99602.09;1824558;77;21004;-77
2022/09/25 11:04:08;;;;;;;3.70;2.50;;;;;;;20.83;42.21;99599.50;1826089;77;21520;-76
2022/09/25 11:06:34;;;;;;;4.70;2.22;;;;;;;20.49;42.84;99600.64;1825837;77;21032;-79
2022/09/25 11:09:18;;;;;;;2.20;2.10;;;;;;;20.14;43.10;99599.59;1823816;77;21583;-79
2022/09/25 11:11:45;;;;;;;5.35;2.10;;;;;;;19.82;43.26;99597.23;1819438;78;21129;-79
2022/09/25 11:14:31;;;;;;;2.35;1.87;;;;;;;19.40;44.01;99599.91;1819961;78;20957;-78
2022/09/25 11:17:03;;;;;;;2.98;2.58;;;;;;;19.20;44.54;99597.52;1820166;77;21072;-77
2022/09/25 11:19:35;;;;;;;2.40;2.17;;;;;;;18.94;44.57;99591.94;1827829;77;21063;-79
2022/09/25 11:22:24;;;;;;;2.42;2.20;;;;;;;18.61;45.46;99599.85;1794316;79;21112;-79
2022/09/25 11:25:11;;;;;;;3.20;2.30;;;;;;;18.34;45.76;99591.25;1805879;78;21007;-77
2022/09/25 11:27:46;;;;;;;2.50;2.30;;;;;;;18.25;46.80;99592.08;1815298;77;20959;-77
2022/09/25 11:30:20;;;;;;;2.52;2.27;;;;;;;18.26;47.32;99585.64;1838611;77;21020;-73
2022/09/25 11:33:36;;;;;;;2.52;2.15;;;;;;;18.21;46.74;99586.81;1820898;77;21017;-76
2022/09/25 11:36:17;;;;;;;3.65;2.40;;;;;;;18.00;46.35;99591.25;1792357;77;21110;-75
2022/09/25 11:41:57;;;;;;;2.40;2.20;;;;;;;17.29;48.00;99592.68;1807045;77;21520;-76
2022/09/25 11:44:44;;;;;;;2.75;2.15;;;;;;;17.57;47.84;99583.93;1799961;79;21517;-75
2022/09/25 11:47:19;;;;;;;2.50;2.30;;;;;;;18.06;47.41;99578.30;1820359;77;21030;-75
2022/09/25 11:49:50;;;;;;;2.70;2.50;;;;;;;18.36;47.08;99574.89;1809762;78;22037;-75
2022/09/25 11:52:41;;;;;;;3.70;2.20;;;;;;;18.46;47.16;99576.00;1838335;77;21001;-77
2022/09/25 11:55:28;;;;;;;2.70;1.98;;;;;;;18.38;47.46;99572.80;1819865;76;21572;-74
2022/09/25 11:58:13;;;;;;;2.33;2.12;;;;;;;18.33;47.57;99578.86;1830863;77;21079;-77
2022/09/25 12:01:24;;;;;;;2.58;2.20;;;;;;;18.50;47.10;99575.57;1817736;78;21076;-75
2022/09/25 12:04:17;;;;;;;2.40;1.90;;;;;;;18.92;46.06;99577.08;1828140;77;21045;-75
2022/09/25 12:07:00;;;;;;;3.05;2.30;;;;;;;19.34;45.38;99579.29;1836761;77;21994;-75
2022/09/25 12:10:02;;;;;;;2.40;2.20;;;;;;;19.58;45.58;99575.30;1845842;77;21032;-75
2022/09/25 12:12:41;;;;;;;3.90;2.52;;;;;;;19.80;45.02;99577.78;1823025;77;21049;-76
2022/09/25 12:15:31;;;;;;;2.87;2.45;;;;;;;20.12;43.60;99577.44;1804484;76;21044;-77
2022/09/25 12:18:12;;;;;;;4.55;2.27;;;;;;;20.20;42.87;99576.27;1827023;77;21136;-75
2022/09/25 12:20:53;;;;;;;2.17;1.98;;;;;;;19.89;42.92;99570.16;1826163;77;21103;-75
2022/09/25 12:23:53;;;;;;;2.33;2.12;;;;;;;19.41;43.52;99577.83;1824218;77;20976;-73
2022/09/25 12:26:51;;;;;;;4.35;2.22;;;;;;;18.93;44.31;99574.66;1825911;78;20984;-74
2022/09/25 12:29:46;;;;;;;2.47;2.10;;;;;;;18.42;45.14;99571.31;1814898;77;21157;-74
2022/09/25 12:32:20;;;;;;;3.20;2.50;;;;;;;18.04;46.24;99574.98;1834854;77;21052;-75
2022/09/25 12:35:22;;;;;;;2.80;2.40;;;;;;;17.78;46.93;99583.55;1805728;77;21575;-75